sensor_id;sensor_type;location;lat;lon;timestamp;P1;durP1;ratioP1;P2;durP2;ratioP2
53409;SDS011;66590;50.734;4.246;2023-09-19T00:01:30;11.90;;;2.47;;
53409;SDS011;66590;50.734;4.246;2023-09-19T00:03:59;10.93;;;3.20;;
53409;SDS011;66590;50.734;4.246;2023-09-19T00:06:28;10.45;;;2.55;;
53409;SDS011;66590;50.734;4.246;2023-09-19T00:08:55;11.13;;;2.60;;
53409;SDS011;66590;50.734;4.246;2023-09-19T00:11:22;11.68;;;2.72;;
53409;SDS011;66590;50.734;4.246;2023-09-19T00:13:49;8.60;;;2.58;;
53409;SDS011;66590;50.734;4.246;2023-09-19T00:16:16;10.70;;;3.05;;
53409;SDS011;66590;50.734;4.246;2023-09-19T00:18:43;14.13;;;3.03;;
53409;SDS011;66590;50.734;4.246;2023-09-19T00:21:11;12.00;;;3.17;;
53409;SDS011;66590;50.734;4.246;2023-09-19T00:23:38;10.60;;;2.30;;
53409;SDS011;66590;50.734;4.246;2023-09-19T00:26:05;12.50;;;2.50;;
53409;SDS011;66590;50.734;4.246;2023-09-19T00:28:32;13.57;;;2.88;;
53409;SDS011;66590;50.734;4.246;2023-09-19T00:30:59;12.93;;;2.95;;
53409;SDS011;66590;50.734;4.246;2023-09-19T00:33:26;15.50;;;3.00;;
53409;SDS011;66590;50.734;4.246;2023-09-19T00:35:54;9.82;;;2.33;;
53409;SDS011;66590;50.734;4.246;2023-09-19T00:38:24;8.98;;;2.50;;
53409;SDS011;66590;50.734;4.246;2023-09-19T00:40:52;17.75;;;3.25;;
53409;SDS011;66590;50.734;4.246;2023-09-19T00:43:21;10.07;;;2.85;;
53409;SDS011;66590;50.734;4.246;2023-09-19T00:45:48;13.00;;;3.13;;
53409;SDS011;66590;50.734;4.246;2023-09-19T00:48:17;14.90;;;2.80;;
53409;SDS011;66590;50.734;4.246;2023-09-19T00:50:46;11.90;;;2.60;;
53409;SDS011;66590;50.734;4.246;2023-09-19T00:53:15;12.93;;;3.22;;
53409;SDS011;66590;50.734;4.246;2023-09-19T00:55:45;13.23;;;3.45;;
53409;SDS011;66590;50.734;4.246;2023-09-19T00:58:13;12.98;;;3.00;;
53409;SDS011;66590;50.734;4.246;2023-09-19T01:00:40;12.93;;;2.90;;
53409;SDS011;66590;50.734;4.246;2023-09-19T01:03:07;9.98;;;2.70;;
53409;SDS011;66590;50.734;4.246;2023-09-19T01:05:34;10.43;;;2.63;;
53409;SDS011;66590;50.734;4.246;2023-09-19T01:08:01;11.93;;;2.50;;
53409;SDS011;66590;50.734;4.246;2023-09-19T01:10:29;13.43;;;3.03;;
53409;SDS011;66590;50.734;4.246;2023-09-19T01:12:59;13.45;;;3.05;;
53409;SDS011;66590;50.734;4.246;2023-09-19T01:15:35;11.55;;;2.80;;
53409;SDS011;66590;50.734;4.246;2023-09-19T01:18:12;12.90;;;2.92;;
53409;SDS011;66590;50.734;4.246;2023-09-19T01:20:51;15.50;;;2.63;;
53409;SDS011;66590;50.734;4.246;2023-09-19T01:23:24;15.00;;;2.70;;
53409;SDS011;66590;50.734;4.246;2023-09-19T01:26:04;9.30;;;2.60;;
53409;SDS011;66590;50.734;4.246;2023-09-19T01:28:53;11.50;;;3.38;;
53409;SDS011;66590;50.734;4.246;2023-09-19T01:31:31;13.15;;;2.80;;
53409;SDS011;66590;50.734;4.246;2023-09-19T01:34:00;16.67;;;3.42;;
53409;SDS011;66590;50.734;4.246;2023-09-19T01:36:28;11.43;;;2.92;;
53409;SDS011;66590;50.734;4.246;2023-09-19T01:38:57;15.27;;;3.30;;
53409;SDS011;66590;50.734;4.246;2023-09-19T01:41:30;11.55;;;2.83;;
53409;SDS011;66590;50.734;4.246;2023-09-19T01:44:06;15.32;;;3.10;;
53409;SDS011;66590;50.734;4.246;2023-09-19T01:46:40;13.98;;;3.38;;
53409;SDS011;66590;50.734;4.246;2023-09-19T01:49:12;11.82;;;2.92;;
53409;SDS011;66590;50.734;4.246;2023-09-19T01:51:46;13.50;;;2.58;;
53409;SDS011;66590;50.734;4.246;2023-09-19T01:54:21;14.02;;;3.90;;
53409;SDS011;66590;50.734;4.246;2023-09-19T01:56:56;17.00;;;3.58;;
53409;SDS011;66590;50.734;4.246;2023-09-19T01:59:28;14.35;;;4.35;;
53409;SDS011;66590;50.734;4.246;2023-09-19T02:02:03;14.05;;;2.72;;
53409;SDS011;66590;50.734;4.246;2023-09-19T02:04:32;13.85;;;3.13;;
53409;SDS011;66590;50.734;4.246;2023-09-19T02:07:00;14.85;;;3.42;;
53409;SDS011;66590;50.734;4.246;2023-09-19T02:09:27;13.20;;;2.80;;
53409;SDS011;66590;50.734;4.246;2023-09-19T02:11:54;12.95;;;3.03;;
53409;SDS011;66590;50.734;4.246;2023-09-19T02:14:21;12.85;;;2.88;;
53409;SDS011;66590;50.734;4.246;2023-09-19T02:16:48;14.85;;;3.35;;
53409;SDS011;66590;50.734;4.246;2023-09-19T02:19:16;14.63;;;3.15;;
53409;SDS011;66590;50.734;4.246;2023-09-19T02:21:43;13.80;;;3.47;;
53409;SDS011;66590;50.734;4.246;2023-09-19T02:24:10;13.68;;;2.85;;
53409;SDS011;66590;50.734;4.246;2023-09-19T02:26:37;12.07;;;3.08;;
53409;SDS011;66590;50.734;4.246;2023-09-19T02:29:04;14.25;;;3.40;;
53409;SDS011;66590;50.734;4.246;2023-09-19T02:31:31;15.32;;;3.40;;
53409;SDS011;66590;50.734;4.246;2023-09-19T02:33:58;11.88;;;3.40;;
53409;SDS011;66590;50.734;4.246;2023-09-19T02:36:26;13.75;;;3.28;;
53409;SDS011;66590;50.734;4.246;2023-09-19T02:38:53;8.23;;;2.80;;
53409;SDS011;66590;50.734;4.246;2023-09-19T02:41:20;12.15;;;2.75;;
53409;SDS011;66590;50.734;4.246;2023-09-19T02:43:47;15.70;;;3.40;;
53409;SDS011;66590;50.734;4.246;2023-09-19T02:46:14;12.15;;;3.17;;
53409;SDS011;66590;50.734;4.246;2023-09-19T02:48:41;8.95;;;2.35;;
53409;SDS011;66590;50.734;4.246;2023-09-19T02:51:08;10.60;;;2.95;;
53409;SDS011;66590;50.734;4.246;2023-09-19T02:53:36;14.35;;;3.83;;
53409;SDS011;66590;50.734;4.246;2023-09-19T02:56:04;13.57;;;3.20;;
53409;SDS011;66590;50.734;4.246;2023-09-19T02:58:31;11.15;;;2.88;;
53409;SDS011;66590;50.734;4.246;2023-09-19T03:00:58;11.75;;;3.10;;
53409;SDS011;66590;50.734;4.246;2023-09-19T03:03:25;11.75;;;3.17;;
53409;SDS011;66590;50.734;4.246;2023-09-19T03:05:52;9.93;;;3.03;;
53409;SDS011;66590;50.734;4.246;2023-09-19T03:08:21;10.13;;;3.72;;
53409;SDS011;66590;50.734;4.246;2023-09-19T03:10:49;10.60;;;3.30;;
53409;SDS011;66590;50.734;4.246;2023-09-19T03:13:16;12.02;;;3.58;;
53409;SDS011;66590;50.734;4.246;2023-09-19T03:15:43;12.93;;;2.80;;
53409;SDS011;66590;50.734;4.246;2023-09-19T03:18:10;15.13;;;3.30;;
53409;SDS011;66590;50.734;4.246;2023-09-19T03:20:37;16.38;;;3.50;;
53409;SDS011;66590;50.734;4.246;2023-09-19T03:23:04;13.88;;;3.25;;
53409;SDS011;66590;50.734;4.246;2023-09-19T03:25:33;11.38;;;2.83;;
53409;SDS011;66590;50.734;4.246;2023-09-19T03:28:01;14.07;;;3.35;;
53409;SDS011;66590;50.734;4.246;2023-09-19T03:30:29;15.80;;;3.10;;
53409;SDS011;66590;50.734;4.246;2023-09-19T03:32:56;11.55;;;3.10;;
53409;SDS011;66590;50.734;4.246;2023-09-19T03:35:23;14.75;;;3.03;;
53409;SDS011;66590;50.734;4.246;2023-09-19T03:37:50;18.95;;;3.17;;
53409;SDS011;66590;50.734;4.246;2023-09-19T03:40:17;10.98;;;2.90;;
53409;SDS011;66590;50.734;4.246;2023-09-19T03:42:44;13.60;;;2.60;;
53409;SDS011;66590;50.734;4.246;2023-09-19T03:45:12;15.02;;;3.17;;
53409;SDS011;66590;50.734;4.246;2023-09-19T03:47:39;12.68;;;2.90;;
53409;SDS011;66590;50.734;4.246;2023-09-19T03:50:07;11.88;;;2.72;;
53409;SDS011;66590;50.734;4.246;2023-09-19T03:52:34;16.42;;;3.08;;
53409;SDS011;66590;50.734;4.246;2023-09-19T03:55:01;14.57;;;3.05;;
53409;SDS011;66590;50.734;4.246;2023-09-19T03:57:29;10.88;;;3.33;;
53409;SDS011;66590;50.734;4.246;2023-09-19T03:59:55;18.55;;;2.97;;
53409;SDS011;66590;50.734;4.246;2023-09-19T04:02:24;12.30;;;3.10;;
53409;SDS011;66590;50.734;4.246;2023-09-19T04:04:51;12.48;;;2.83;;
53409;SDS011;66590;50.734;4.246;2023-09-19T04:07:18;12.20;;;3.20;;
53409;SDS011;66590;50.734;4.246;2023-09-19T04:09:45;11.90;;;3.10;;
53409;SDS011;66590;50.734;4.246;2023-09-19T04:12:12;11.82;;;2.45;;
53409;SDS011;66590;50.734;4.246;2023-09-19T04:14:39;13.15;;;3.25;;
53409;SDS011;66590;50.734;4.246;2023-09-19T04:17:06;12.00;;;2.83;;
53409;SDS011;66590;50.734;4.246;2023-09-19T04:19:38;14.65;;;3.25;;
53409;SDS011;66590;50.734;4.246;2023-09-19T04:22:05;15.15;;;2.38;;
53409;SDS011;66590;50.734;4.246;2023-09-19T04:24:32;10.20;;;3.13;;
53409;SDS011;66590;50.734;4.246;2023-09-19T04:26:59;11.43;;;2.80;;
53409;SDS011;66590;50.734;4.246;2023-09-19T04:29:26;11.43;;;2.40;;
53409;SDS011;66590;50.734;4.246;2023-09-19T04:31:52;10.95;;;2.83;;
53409;SDS011;66590;50.734;4.246;2023-09-19T04:34:20;12.40;;;3.03;;
53409;SDS011;66590;50.734;4.246;2023-09-19T04:36:48;12.95;;;2.72;;
53409;SDS011;66590;50.734;4.246;2023-09-19T04:39:15;11.48;;;3.15;;
53409;SDS011;66590;50.734;4.246;2023-09-19T04:41:42;9.85;;;2.72;;
53409;SDS011;66590;50.734;4.246;2023-09-19T04:44:09;12.27;;;2.70;;
53409;SDS011;66590;50.734;4.246;2023-09-19T04:46:36;13.23;;;2.97;;
53409;SDS011;66590;50.734;4.246;2023-09-19T04:49:03;10.20;;;2.80;;
53409;SDS011;66590;50.734;4.246;2023-09-19T04:51:30;14.30;;;3.00;;
53409;SDS011;66590;50.734;4.246;2023-09-19T04:53:58;14.50;;;3.25;;
53409;SDS011;66590;50.734;4.246;2023-09-19T04:56:25;12.00;;;3.40;;
53409;SDS011;66590;50.734;4.246;2023-09-19T04:58:52;9.55;;;2.42;;
53409;SDS011;66590;50.734;4.246;2023-09-19T05:01:19;11.70;;;2.90;;
53409;SDS011;66590;50.734;4.246;2023-09-19T05:03:46;14.00;;;3.13;;
53409;SDS011;66590;50.734;4.246;2023-09-19T05:06:13;15.55;;;2.70;;
53409;SDS011;66590;50.734;4.246;2023-09-19T05:08:40;16.65;;;3.72;;
53409;SDS011;66590;50.734;4.246;2023-09-19T05:11:09;13.38;;;2.60;;
53409;SDS011;66590;50.734;4.246;2023-09-19T05:13:36;13.43;;;2.78;;
53409;SDS011;66590;50.734;4.246;2023-09-19T05:16:03;13.10;;;3.10;;
53409;SDS011;66590;50.734;4.246;2023-09-19T05:18:30;14.73;;;2.72;;
53409;SDS011;66590;50.734;4.246;2023-09-19T05:20:57;12.98;;;3.00;;
53409;SDS011;66590;50.734;4.246;2023-09-19T05:23:24;13.85;;;2.63;;
53409;SDS011;66590;50.734;4.246;2023-09-19T05:25:51;15.70;;;3.40;;
53409;SDS011;66590;50.734;4.246;2023-09-19T05:28:19;11.38;;;3.20;;
53409;SDS011;66590;50.734;4.246;2023-09-19T05:30:46;12.93;;;3.13;;
53409;SDS011;66590;50.734;4.246;2023-09-19T05:33:14;11.77;;;3.22;;
53409;SDS011;66590;50.734;4.246;2023-09-19T05:35:41;15.48;;;3.20;;
53409;SDS011;66590;50.734;4.246;2023-09-19T05:38:08;11.48;;;2.83;;
53409;SDS011;66590;50.734;4.246;2023-09-19T05:40:35;13.23;;;3.15;;
53409;SDS011;66590;50.734;4.246;2023-09-19T05:43:02;15.77;;;3.15;;
53409;SDS011;66590;50.734;4.246;2023-09-19T05:45:31;14.15;;;3.15;;
53409;SDS011;66590;50.734;4.246;2023-09-19T05:48:05;9.43;;;3.15;;
53409;SDS011;66590;50.734;4.246;2023-09-19T05:50:34;11.20;;;2.65;;
53409;SDS011;66590;50.734;4.246;2023-09-19T05:53:01;13.95;;;2.58;;
53409;SDS011;66590;50.734;4.246;2023-09-19T05:55:28;12.65;;;3.08;;
53409;SDS011;66590;50.734;4.246;2023-09-19T05:57:55;11.43;;;2.50;;
53409;SDS011;66590;50.734;4.246;2023-09-19T06:00:22;12.82;;;2.63;;
53409;SDS011;66590;50.734;4.246;2023-09-19T06:02:52;11.52;;;3.05;;
53409;SDS011;66590;50.734;4.246;2023-09-19T06:05:19;11.60;;;2.55;;
53409;SDS011;66590;50.734;4.246;2023-09-19T06:07:47;13.05;;;3.05;;
53409;SDS011;66590;50.734;4.246;2023-09-19T06:10:14;9.45;;;2.63;;
53409;SDS011;66590;50.734;4.246;2023-09-19T06:12:41;11.57;;;2.67;;
53409;SDS011;66590;50.734;4.246;2023-09-19T06:15:08;9.57;;;2.65;;
53409;SDS011;66590;50.734;4.246;2023-09-19T06:17:36;13.13;;;2.95;;
53409;SDS011;66590;50.734;4.246;2023-09-19T06:20:05;12.60;;;2.83;;
53409;SDS011;66590;50.734;4.246;2023-09-19T06:22:33;12.23;;;2.70;;
53409;SDS011;66590;50.734;4.246;2023-09-19T06:25:00;9.43;;;2.13;;
53409;SDS011;66590;50.734;4.246;2023-09-19T06:27:27;11.60;;;2.80;;
53409;SDS011;66590;50.734;4.246;2023-09-19T06:29:54;9.68;;;2.75;;
53409;SDS011;66590;50.734;4.246;2023-09-19T06:32:26;11.90;;;3.55;;
53409;SDS011;66590;50.734;4.246;2023-09-19T06:34:53;13.32;;;2.67;;
53409;SDS011;66590;50.734;4.246;2023-09-19T06:37:22;13.05;;;2.28;;
53409;SDS011;66590;50.734;4.246;2023-09-19T06:39:49;12.02;;;2.53;;
53409;SDS011;66590;50.734;4.246;2023-09-19T06:42:16;10.75;;;2.55;;
53409;SDS011;66590;50.734;4.246;2023-09-19T06:44:45;8.75;;;2.50;;
53409;SDS011;66590;50.734;4.246;2023-09-19T06:47:12;12.07;;;3.03;;
53409;SDS011;66590;50.734;4.246;2023-09-19T06:49:39;14.68;;;3.10;;
53409;SDS011;66590;50.734;4.246;2023-09-19T06:52:06;11.15;;;2.88;;
53409;SDS011;66590;50.734;4.246;2023-09-19T06:54:34;8.35;;;2.50;;
53409;SDS011;66590;50.734;4.246;2023-09-19T06:57:01;10.50;;;2.75;;
53409;SDS011;66590;50.734;4.246;2023-09-19T06:59:28;17.30;;;3.50;;
53409;SDS011;66590;50.734;4.246;2023-09-19T07:01:55;12.20;;;2.85;;
53409;SDS011;66590;50.734;4.246;2023-09-19T07:04:22;10.75;;;2.72;;
53409;SDS011;66590;50.734;4.246;2023-09-19T07:06:49;12.55;;;3.28;;
53409;SDS011;66590;50.734;4.246;2023-09-19T07:09:16;13.05;;;3.30;;
53409;SDS011;66590;50.734;4.246;2023-09-19T07:11:45;13.88;;;2.80;;
53409;SDS011;66590;50.734;4.246;2023-09-19T07:14:12;12.60;;;3.58;;
53409;SDS011;66590;50.734;4.246;2023-09-19T07:16:39;9.43;;;2.50;;
53409;SDS011;66590;50.734;4.246;2023-09-19T07:19:06;13.27;;;3.05;;
53409;SDS011;66590;50.734;4.246;2023-09-19T07:21:33;8.55;;;2.70;;
53409;SDS011;66590;50.734;4.246;2023-09-19T07:24:00;10.98;;;2.92;;
53409;SDS011;66590;50.734;4.246;2023-09-19T07:26:27;10.80;;;2.88;;
53409;SDS011;66590;50.734;4.246;2023-09-19T07:28:55;14.82;;;3.42;;
53409;SDS011;66590;50.734;4.246;2023-09-19T07:31:22;13.38;;;2.50;;
53409;SDS011;66590;50.734;4.246;2023-09-19T07:33:49;10.57;;;2.75;;
53409;SDS011;66590;50.734;4.246;2023-09-19T07:36:16;14.10;;;2.80;;
53409;SDS011;66590;50.734;4.246;2023-09-19T07:38:43;13.52;;;3.03;;
53409;SDS011;66590;50.734;4.246;2023-09-19T07:41:10;21.27;;;3.47;;
53409;SDS011;66590;50.734;4.246;2023-09-19T07:43:37;12.60;;;2.95;;
53409;SDS011;66590;50.734;4.246;2023-09-19T07:46:06;8.35;;;2.78;;
53409;SDS011;66590;50.734;4.246;2023-09-19T07:48:34;12.13;;;2.50;;
53409;SDS011;66590;50.734;4.246;2023-09-19T07:51:02;13.40;;;2.92;;
53409;SDS011;66590;50.734;4.246;2023-09-19T07:53:29;12.43;;;2.78;;
53409;SDS011;66590;50.734;4.246;2023-09-19T07:56:01;9.15;;;2.63;;
53409;SDS011;66590;50.734;4.246;2023-09-19T07:58:29;12.65;;;3.25;;
53409;SDS011;66590;50.734;4.246;2023-09-19T08:00:56;8.93;;;2.38;;
53409;SDS011;66590;50.734;4.246;2023-09-19T08:03:24;17.77;;;3.28;;
53409;SDS011;66590;50.734;4.246;2023-09-19T08:05:51;11.70;;;2.63;;
53409;SDS011;66590;50.734;4.246;2023-09-19T08:08:18;16.83;;;3.08;;
53409;SDS011;66590;50.734;4.246;2023-09-19T08:10:45;18.65;;;3.33;;
53409;SDS011;66590;50.734;4.246;2023-09-19T08:13:12;14.65;;;3.50;;
53409;SDS011;66590;50.734;4.246;2023-09-19T08:15:42;20.95;;;3.35;;
53409;SDS011;66590;50.734;4.246;2023-09-19T08:18:10;11.20;;;3.08;;
53409;SDS011;66590;50.734;4.246;2023-09-19T08:20:38;17.42;;;2.85;;
53409;SDS011;66590;50.734;4.246;2023-09-19T08:23:05;9.52;;;2.35;;
53409;SDS011;66590;50.734;4.246;2023-09-19T08:25:32;14.18;;;3.35;;
53409;SDS011;66590;50.734;4.246;2023-09-19T08:27:59;13.43;;;2.83;;
53409;SDS011;66590;50.734;4.246;2023-09-19T08:30:27;12.73;;;3.28;;
53409;SDS011;66590;50.734;4.246;2023-09-19T08:32:56;13.93;;;2.70;;
53409;SDS011;66590;50.734;4.246;2023-09-19T08:35:23;12.40;;;2.50;;
53409;SDS011;66590;50.734;4.246;2023-09-19T08:37:52;9.23;;;2.58;;
53409;SDS011;66590;50.734;4.246;2023-09-19T08:40:19;13.45;;;2.60;;
53409;SDS011;66590;50.734;4.246;2023-09-19T08:42:49;13.43;;;2.90;;
53409;SDS011;66590;50.734;4.246;2023-09-19T08:45:16;8.95;;;2.58;;
53409;SDS011;66590;50.734;4.246;2023-09-19T08:47:46;14.80;;;2.40;;
53409;SDS011;66590;50.734;4.246;2023-09-19T08:50:28;13.40;;;2.65;;
53409;SDS011;66590;50.734;4.246;2023-09-19T08:52:59;10.13;;;2.03;;
53409;SDS011;66590;50.734;4.246;2023-09-19T08:55:28;10.30;;;2.45;;
53409;SDS011;66590;50.734;4.246;2023-09-19T08:57:59;12.60;;;2.42;;
53409;SDS011;66590;50.734;4.246;2023-09-19T09:00:27;7.93;;;2.15;;
53409;SDS011;66590;50.734;4.246;2023-09-19T09:02:55;8.77;;;2.28;;
53409;SDS011;66590;50.734;4.246;2023-09-19T09:05:23;11.82;;;2.50;;
53409;SDS011;66590;50.734;4.246;2023-09-19T09:07:51;11.82;;;2.67;;
53409;SDS011;66590;50.734;4.246;2023-09-19T09:10:20;8.07;;;2.17;;
53409;SDS011;66590;50.734;4.246;2023-09-19T09:12:48;9.40;;;2.50;;
53409;SDS011;66590;50.734;4.246;2023-09-19T09:15:17;14.23;;;2.50;;
53409;SDS011;66590;50.734;4.246;2023-09-19T09:17:46;9.80;;;2.13;;
53409;SDS011;66590;50.734;4.246;2023-09-19T09:20:13;10.50;;;2.90;;
53409;SDS011;66590;50.734;4.246;2023-09-19T09:22:44;12.95;;;3.10;;
53409;SDS011;66590;50.734;4.246;2023-09-19T09:25:17;15.43;;;2.78;;
53409;SDS011;66590;50.734;4.246;2023-09-19T09:27:46;7.88;;;2.40;;
53409;SDS011;66590;50.734;4.246;2023-09-19T09:30:32;10.25;;;2.05;;
53409;SDS011;66590;50.734;4.246;2023-09-19T09:33:09;12.25;;;2.30;;
53409;SDS011;66590;50.734;4.246;2023-09-19T09:35:46;8.98;;;2.13;;
53409;SDS011;66590;50.734;4.246;2023-09-19T09:38:14;8.55;;;2.13;;
53409;SDS011;66590;50.734;4.246;2023-09-19T09:40:45;4.30;;;1.85;;
53409;SDS011;66590;50.734;4.246;2023-09-19T09:43:26;6.22;;;1.98;;
53409;SDS011;66590;50.734;4.246;2023-09-19T09:46:07;5.45;;;1.88;;
53409;SDS011;66590;50.734;4.246;2023-09-19T09:48:38;6.10;;;2.13;;
53409;SDS011;66590;50.734;4.246;2023-09-19T09:51:06;10.40;;;1.48;;
53409;SDS011;66590;50.734;4.246;2023-09-19T09:53:32;9.15;;;2.40;;
53409;SDS011;66590;50.734;4.246;2023-09-19T09:56:00;8.65;;;2.25;;
53409;SDS011;66590;50.734;4.246;2023-09-19T09:58:36;9.27;;;2.35;;
53409;SDS011;66590;50.734;4.246;2023-09-19T10:01:04;8.18;;;1.70;;
53409;SDS011;66590;50.734;4.246;2023-09-19T10:03:32;8.38;;;2.30;;
53409;SDS011;66590;50.734;4.246;2023-09-19T10:06:07;5.68;;;1.80;;
53409;SDS011;66590;50.734;4.246;2023-09-19T10:08:35;9.63;;;2.65;;
53409;SDS011;66590;50.734;4.246;2023-09-19T10:11:14;13.50;;;2.13;;
53409;SDS011;66590;50.734;4.246;2023-09-19T10:13:50;5.97;;;1.85;;
53409;SDS011;66590;50.734;4.246;2023-09-19T10:16:17;7.32;;;2.35;;
53409;SDS011;66590;50.734;4.246;2023-09-19T10:21:19;9.57;;;2.25;;
53409;SDS011;66590;50.734;4.246;2023-09-19T10:23:46;6.63;;;1.95;;
53409;SDS011;66590;50.734;4.246;2023-09-19T10:26:21;7.65;;;1.95;;
53409;SDS011;66590;50.734;4.246;2023-09-19T10:28:50;7.75;;;2.35;;
53409;SDS011;66590;50.734;4.246;2023-09-19T10:31:19;8.43;;;1.75;;
53409;SDS011;66590;50.734;4.246;2023-09-19T10:33:48;8.77;;;1.35;;
53409;SDS011;66590;50.734;4.246;2023-09-19T10:36:16;7.30;;;1.35;;
53409;SDS011;66590;50.734;4.246;2023-09-19T10:38:44;8.65;;;1.70;;
53409;SDS011;66590;50.734;4.246;2023-09-19T10:41:14;4.88;;;1.80;;
53409;SDS011;66590;50.734;4.246;2023-09-19T10:43:45;6.07;;;2.05;;
53409;SDS011;66590;50.734;4.246;2023-09-19T10:46:16;4.57;;;1.38;;
53409;SDS011;66590;50.734;4.246;2023-09-19T10:48:44;3.75;;;1.25;;
53409;SDS011;66590;50.734;4.246;2023-09-19T10:51:11;8.20;;;1.80;;
53409;SDS011;66590;50.734;4.246;2023-09-19T10:53:43;7.07;;;1.73;;
53409;SDS011;66590;50.734;4.246;2023-09-19T10:56:16;7.75;;;1.30;;
53409;SDS011;66590;50.734;4.246;2023-09-19T10:58:47;7.70;;;1.48;;
53409;SDS011;66590;50.734;4.246;2023-09-19T11:01:16;6.60;;;1.45;;
53409;SDS011;66590;50.734;4.246;2023-09-19T11:03:43;6.82;;;1.58;;
53409;SDS011;66590;50.734;4.246;2023-09-19T11:06:11;8.82;;;1.80;;
53409;SDS011;66590;50.734;4.246;2023-09-19T11:14:15;5.10;;;1.50;;
53409;SDS011;66590;50.734;4.246;2023-09-19T11:25:44;4.93;;;1.40;;
53409;SDS011;66590;50.734;4.246;2023-09-19T11:28:32;4.32;;;1.00;;
53409;SDS011;66590;50.734;4.246;2023-09-19T11:37:25;5.10;;;1.58;;
53409;SDS011;66590;50.734;4.246;2023-09-19T11:40:26;6.32;;;1.30;;
53409;SDS011;66590;50.734;4.246;2023-09-19T11:42:53;5.85;;;1.60;;
53409;SDS011;66590;50.734;4.246;2023-09-19T11:48:25;4.18;;;1.45;;
53409;SDS011;66590;50.734;4.246;2023-09-19T11:50:53;7.63;;;1.48;;
53409;SDS011;66590;50.734;4.246;2023-09-19T11:53:22;8.23;;;2.05;;
53409;SDS011;66590;50.734;4.246;2023-09-19T11:55:50;4.03;;;1.35;;
53409;SDS011;66590;50.734;4.246;2023-09-19T11:58:18;6.88;;;1.75;;
53409;SDS011;66590;50.734;4.246;2023-09-19T12:00:45;4.97;;;1.27;;
53409;SDS011;66590;50.734;4.246;2023-09-19T12:03:12;8.00;;;1.52;;
53409;SDS011;66590;50.734;4.246;2023-09-19T12:05:40;5.03;;;1.50;;
53409;SDS011;66590;50.734;4.246;2023-09-19T12:08:07;4.88;;;1.60;;
53409;SDS011;66590;50.734;4.246;2023-09-19T12:10:44;4.40;;;1.30;;
53409;SDS011;66590;50.734;4.246;2023-09-19T12:13:15;5.15;;;1.33;;
53409;SDS011;66590;50.734;4.246;2023-09-19T12:15:43;3.83;;;1.27;;
53409;SDS011;66590;50.734;4.246;2023-09-19T12:18:10;6.75;;;1.25;;
53409;SDS011;66590;50.734;4.246;2023-09-19T12:20:51;6.13;;;1.80;;
53409;SDS011;66590;50.734;4.246;2023-09-19T12:23:18;4.68;;;1.60;;
53409;SDS011;66590;50.734;4.246;2023-09-19T12:25:46;4.13;;;1.58;;
53409;SDS011;66590;50.734;4.246;2023-09-19T12:28:14;5.20;;;1.52;;
53409;SDS011;66590;50.734;4.246;2023-09-19T12:30:41;3.30;;;1.50;;
53409;SDS011;66590;50.734;4.246;2023-09-19T12:33:14;6.25;;;1.30;;
53409;SDS011;66590;50.734;4.246;2023-09-19T12:35:42;6.63;;;1.70;;
53409;SDS011;66590;50.734;4.246;2023-09-19T12:38:09;5.90;;;1.67;;
53409;SDS011;66590;50.734;4.246;2023-09-19T12:40:36;6.45;;;1.52;;
53409;SDS011;66590;50.734;4.246;2023-09-19T12:43:05;7.00;;;1.45;;
53409;SDS011;66590;50.734;4.246;2023-09-19T12:45:33;4.57;;;1.60;;
53409;SDS011;66590;50.734;4.246;2023-09-19T12:48:17;9.02;;;1.45;;
53409;SDS011;66590;50.734;4.246;2023-09-19T12:51:03;4.68;;;1.33;;
53409;SDS011;66590;50.734;4.246;2023-09-19T12:53:33;4.88;;;1.40;;
53409;SDS011;66590;50.734;4.246;2023-09-19T12:56:00;5.18;;;1.55;;
53409;SDS011;66590;50.734;4.246;2023-09-19T12:58:29;4.38;;;1.25;;
53409;SDS011;66590;50.734;4.246;2023-09-19T13:00:57;6.18;;;1.70;;
53409;SDS011;66590;50.734;4.246;2023-09-19T13:03:27;3.80;;;1.33;;
53409;SDS011;66590;50.734;4.246;2023-09-19T13:05:55;6.63;;;1.63;;
53409;SDS011;66590;50.734;4.246;2023-09-19T13:08:24;2.25;;;1.13;;
53409;SDS011;66590;50.734;4.246;2023-09-19T13:11:05;5.10;;;1.33;;
53409;SDS011;66590;50.734;4.246;2023-09-19T13:13:35;4.53;;;1.30;;
53409;SDS011;66590;50.734;4.246;2023-09-19T13:16:07;6.22;;;1.50;;
53409;SDS011;66590;50.734;4.246;2023-09-19T13:18:44;7.35;;;1.45;;
53409;SDS011;66590;50.734;4.246;2023-09-19T13:21:13;3.55;;;1.50;;
53409;SDS011;66590;50.734;4.246;2023-09-19T13:23:41;8.20;;;1.60;;
53409;SDS011;66590;50.734;4.246;2023-09-19T13:26:08;5.45;;;1.48;;
53409;SDS011;66590;50.734;4.246;2023-09-19T13:28:37;6.38;;;1.20;;
53409;SDS011;66590;50.734;4.246;2023-09-19T13:31:04;5.53;;;1.33;;
53409;SDS011;66590;50.734;4.246;2023-09-19T13:33:32;6.20;;;1.55;;
53409;SDS011;66590;50.734;4.246;2023-09-19T13:36:00;5.70;;;1.50;;
53409;SDS011;66590;50.734;4.246;2023-09-19T13:38:26;6.15;;;1.75;;
53409;SDS011;66590;50.734;4.246;2023-09-19T13:40:53;3.47;;;1.25;;
53409;SDS011;66590;50.734;4.246;2023-09-19T13:43:21;4.80;;;1.60;;
53409;SDS011;66590;50.734;4.246;2023-09-19T13:45:49;5.30;;;1.38;;
53409;SDS011;66590;50.734;4.246;2023-09-19T13:48:16;5.03;;;1.60;;
53409;SDS011;66590;50.734;4.246;2023-09-19T13:50:43;4.53;;;1.52;;
53409;SDS011;66590;50.734;4.246;2023-09-19T13:53:10;4.68;;;1.58;;
53409;SDS011;66590;50.734;4.246;2023-09-19T13:55:37;4.63;;;1.58;;
53409;SDS011;66590;50.734;4.246;2023-09-19T13:58:04;5.45;;;1.60;;
53409;SDS011;66590;50.734;4.246;2023-09-19T14:00:31;5.93;;;1.55;;
53409;SDS011;66590;50.734;4.246;2023-09-19T14:03:00;3.03;;;1.40;;
53409;SDS011;66590;50.734;4.246;2023-09-19T14:05:27;4.38;;;1.77;;
53409;SDS011;66590;50.734;4.246;2023-09-19T14:07:54;7.43;;;1.80;;
53409;SDS011;66590;50.734;4.246;2023-09-19T14:10:21;9.65;;;1.90;;
53409;SDS011;66590;50.734;4.246;2023-09-19T14:12:48;4.97;;;1.90;;
53409;SDS011;66590;50.734;4.246;2023-09-19T14:15:15;5.57;;;1.42;;
53409;SDS011;66590;50.734;4.246;2023-09-19T14:17:42;7.32;;;1.90;;
53409;SDS011;66590;50.734;4.246;2023-09-19T14:20:11;3.78;;;1.60;;
53409;SDS011;66590;50.734;4.246;2023-09-19T14:22:38;6.20;;;2.08;;
53409;SDS011;66590;50.734;4.246;2023-09-19T14:25:05;6.57;;;1.73;;
53409;SDS011;66590;50.734;4.246;2023-09-19T14:27:32;7.07;;;1.70;;
53409;SDS011;66590;50.734;4.246;2023-09-19T14:29:59;6.47;;;1.83;;
53409;SDS011;66590;50.734;4.246;2023-09-19T14:32:26;4.32;;;1.35;;
53409;SDS011;66590;50.734;4.246;2023-09-19T14:34:53;8.00;;;2.10;;
53409;SDS011;66590;50.734;4.246;2023-09-19T14:37:21;7.15;;;1.73;;
53409;SDS011;66590;50.734;4.246;2023-09-19T14:39:48;7.88;;;1.60;;
53409;SDS011;66590;50.734;4.246;2023-09-19T14:42:15;4.00;;;1.80;;
53409;SDS011;66590;50.734;4.246;2023-09-19T14:44:42;6.05;;;2.28;;
53409;SDS011;66590;50.734;4.246;2023-09-19T14:47:09;5.00;;;2.17;;
53409;SDS011;66590;50.734;4.246;2023-09-19T14:49:36;5.55;;;2.08;;
53409;SDS011;66590;50.734;4.246;2023-09-19T14:52:05;4.05;;;1.90;;
53409;SDS011;66590;50.734;4.246;2023-09-19T14:54:35;8.52;;;2.22;;
53409;SDS011;66590;50.734;4.246;2023-09-19T14:57:02;6.50;;;1.80;;
53409;SDS011;66590;50.734;4.246;2023-09-19T14:59:29;8.48;;;1.83;;
53409;SDS011;66590;50.734;4.246;2023-09-19T15:01:57;8.20;;;2.20;;
53409;SDS011;66590;50.734;4.246;2023-09-19T15:04:24;8.23;;;2.40;;
53409;SDS011;66590;50.734;4.246;2023-09-19T15:06:51;9.18;;;2.88;;
53409;SDS011;66590;50.734;4.246;2023-09-19T15:09:18;5.78;;;2.10;;
53409;SDS011;66590;50.734;4.246;2023-09-19T15:11:47;4.82;;;2.22;;
53409;SDS011;66590;50.734;4.246;2023-09-19T15:14:14;4.75;;;1.65;;
53409;SDS011;66590;50.734;4.246;2023-09-19T15:16:41;5.85;;;1.88;;